sensor_id;sensor_type;location;lat;lon;timestamp;pressure;altitude;pressure_sealevel;temperature;humidity
64551;BME280;74341;44.510;-123.270;2024-02-28T00:02:04;101283.34;;;7.93;93.57
64551;BME280;74341;44.510;-123.270;2024-02-28T00:04:31;101288.38;;;7.88;93.47
64551;BME280;74341;44.510;-123.270;2024-02-28T00:06:57;101288.06;;;7.81;93.35
64551;BME280;74341;44.510;-123.270;2024-02-28T00:09:24;101287.78;;;7.74;94.44
64551;BME280;74341;44.510;-123.270;2024-02-28T00:11:51;101292.97;;;7.68;96.05
64551;BME280;74341;44.510;-123.270;2024-02-28T00:14:17;101282.63;;;7.61;96.07
64551;BME280;74341;44.510;-123.270;2024-02-28T00:16:44;101277.19;;;7.61;95.04
64551;BME280;74341;44.510;-123.270;2024-02-28T00:19:12;101279.03;;;7.51;95.81
64551;BME280;74341;44.510;-123.270;2024-02-28T00:21:39;101279.34;;;7.48;95.27
64551;BME280;74341;44.510;-123.270;2024-02-28T00:24:07;101281.38;;;7.46;96.66
64551;BME280;74341;44.510;-123.270;2024-02-28T00:26:33;101282.06;;;7.38;97.07
64551;BME280;74341;44.510;-123.270;2024-02-28T00:28:59;101275.03;;;7.36;97.11
64551;BME280;74341;44.510;-123.270;2024-02-28T00:31:26;101278.03;;;7.33;96.21
64551;BME280;74341;44.510;-123.270;2024-02-28T00:33:52;101279.19;;;7.30;96.94
64551;BME280;74341;44.510;-123.270;2024-02-28T00:36:19;101279.75;;;7.24;96.69
64551;BME280;74341;44.510;-123.270;2024-02-28T00:38:45;101271.72;;;7.22;96.63
64551;BME280;74341;44.510;-123.270;2024-02-28T00:41:11;101276.00;;;7.15;97.73
64551;BME280;74341;44.510;-123.270;2024-02-28T00:43:38;101271.59;;;7.14;96.56
64551;BME280;74341;44.510;-123.270;2024-02-28T00:46:04;101267.41;;;7.10;96.23
64551;BME280;74341;44.510;-123.270;2024-02-28T00:48:34;101262.84;;;7.11;96.57
64551;BME280;74341;44.510;-123.270;2024-02-28T00:51:00;101259.97;;;7.12;98.22
64551;BME280;74341;44.510;-123.270;2024-02-28T00:53:27;101259.09;;;7.12;98.54
64551;BME280;74341;44.510;-123.270;2024-02-28T00:55:53;101251.22;;;7.09;98.16
64551;BME280;74341;44.510;-123.270;2024-02-28T00:58:21;101243.38;;;7.06;97.37
64551;BME280;74341;44.510;-123.270;2024-02-28T01:00:50;101245.91;;;6.97;97.44
64551;BME280;74341;44.510;-123.270;2024-02-28T01:03:16;101242.63;;;6.94;97.32
64551;BME280;74341;44.510;-123.270;2024-02-28T01:05:44;101248.31;;;6.91;97.19
64551;BME280;74341;44.510;-123.270;2024-02-28T01:08:10;101249.63;;;6.87;97.47
64551;BME280;74341;44.510;-123.270;2024-02-28T01:10:36;101245.59;;;6.81;97.01
64551;BME280;74341;44.510;-123.270;2024-02-28T01:13:04;101248.00;;;6.74;98.12
64551;BME280;74341;44.510;-123.270;2024-02-28T01:15:30;101245.69;;;6.70;97.76
64551;BME280;74341;44.510;-123.270;2024-02-28T01:17:56;101240.09;;;6.61;99.67
64551;BME280;74341;44.510;-123.270;2024-02-28T01:20:23;101242.22;;;6.58;98.26
64551;BME280;74341;44.510;-123.270;2024-02-28T01:22:49;101224.75;;;6.51;99.22
64551;BME280;74341;44.510;-123.270;2024-02-28T01:25:15;101238.34;;;6.51;98.27
64551;BME280;74341;44.510;-123.270;2024-02-28T01:27:42;101234.03;;;6.48;98.04
64551;BME280;74341;44.510;-123.270;2024-02-28T01:30:09;101228.59;;;6.48;97.94
64551;BME280;74341;44.510;-123.270;2024-02-28T01:32:35;101225.28;;;6.44;99.06
64551;BME280;74341;44.510;-123.270;2024-02-28T01:35:05;101224.56;;;6.42;98.69
64551;BME280;74341;44.510;-123.270;2024-02-28T01:37:31;101231.41;;;6.37;99.32
64551;BME280;74341;44.510;-123.270;2024-02-28T01:39:57;101226.25;;;6.34;100.00
64551;BME280;74341;44.510;-123.270;2024-02-28T01:42:24;101228.84;;;6.35;100.00
64551;BME280;74341;44.510;-123.270;2024-02-28T01:44:51;101226.38;;;6.32;100.00
64551;BME280;74341;44.510;-123.270;2024-02-28T01:47:18;101231.34;;;6.27;100.00
64551;BME280;74341;44.510;-123.270;2024-02-28T01:49:46;101230.50;;;6.26;100.00
64551;BME280;74341;44.510;-123.270;2024-02-28T01:52:13;101231.78;;;6.22;100.00
64551;BME280;74341;44.510;-123.270;2024-02-28T01:54:42;101220.06;;;6.22;100.00
64551;BME280;74341;44.510;-123.270;2024-02-28T01:57:09;101230.19;;;6.20;100.00
64551;BME280;74341;44.510;-123.270;2024-02-28T01:59:37;101217.88;;;6.16;100.00
64551;BME280;74341;44.510;-123.270;2024-02-28T02:02:03;101226.88;;;6.16;100.00
64551;BME280;74341;44.510;-123.270;2024-02-28T02:04:30;101222.59;;;6.14;100.00
64551;BME280;74341;44.510;-123.270;2024-02-28T02:06:56;101213.84;;;6.10;100.00
64551;BME280;74341;44.510;-123.270;2024-02-28T02:09:25;101226.72;;;6.08;100.00
64551;BME280;74341;44.510;-123.270;2024-02-28T02:11:52;101221.28;;;6.08;100.00
64551;BME280;74341;44.510;-123.270;2024-02-28T02:14:18;101218.69;;;6.06;100.00
64551;BME280;74341;44.510;-123.270;2024-02-28T02:16:44;101218.81;;;6.05;100.00
64551;BME280;74341;44.510;-123.270;2024-02-28T02:19:11;101224.25;;;6.05;100.00
64551;BME280;74341;44.510;-123.270;2024-02-28T02:21:48;101222.38;;;6.05;100.00
64551;BME280;74341;44.510;-123.270;2024-02-28T02:24:15;101212.81;;;6.01;100.00
64551;BME280;74341;44.510;-123.270;2024-02-28T02:26:42;101209.25;;;6.01;100.00
64551;BME280;74341;44.510;-123.270;2024-02-28T02:29:11;101205.81;;;5.99;100.00
64551;BME280;74341;44.510;-123.270;2024-02-28T02:31:38;101213.78;;;6.00;100.00
64551;BME280;74341;44.510;-123.270;2024-02-28T02:34:04;101211.94;;;6.01;100.00
64551;BME280;74341;44.510;-123.270;2024-02-28T02:36:30;101202.22;;;5.98;100.00
64551;BME280;74341;44.510;-123.270;2024-02-28T02:38:57;101204.91;;;5.98;100.00
64551;BME280;74341;44.510;-123.270;2024-02-28T02:41:23;101205.19;;;5.95;100.00
64551;BME280;74341;44.510;-123.270;2024-02-28T02:43:51;101208.88;;;5.94;100.00
64551;BME280;74341;44.510;-123.270;2024-02-28T02:46:18;101207.00;;;5.95;100.00
64551;BME280;74341;44.510;-123.270;2024-02-28T02:48:44;101208.03;;;5.94;100.00
64551;BME280;74341;44.510;-123.270;2024-02-28T02:51:12;101215.06;;;5.96;100.00
64551;BME280;74341;44.510;-123.270;2024-02-28T02:53:38;101213.19;;;5.97;100.00
64551;BME280;74341;44.510;-123.270;2024-02-28T02:56:04;101202.34;;;5.97;100.00
64551;BME280;74341;44.510;-123.270;2024-02-28T02:58:31;101208.50;;;5.99;100.00
64551;BME280;74341;44.510;-123.270;2024-02-28T03:00:57;101198.38;;;6.01;100.00
64551;BME280;74341;44.510;-123.270;2024-02-28T03:03:25;101196.66;;;6.00;100.00
64551;BME280;74341;44.510;-123.270;2024-02-28T03:05:51;101197.50;;;6.00;100.00
64551;BME280;74341;44.510;-123.270;2024-02-28T03:08:18;101196.38;;;6.03;100.00
64551;BME280;74341;44.510;-123.270;2024-02-28T03:10:44;101189.09;;;6.03;100.00
64551;BME280;74341;44.510;-123.270;2024-02-28T03:13:10;101184.50;;;6.04;100.00
64551;BME280;74341;44.510;-123.270;2024-02-28T03:15:37;101169.13;;;6.04;100.00
64551;BME280;74341;44.510;-123.270;2024-02-28T03:18:03;101167.25;;;6.05;100.00
64551;BME280;74341;44.510;-123.270;2024-02-28T03:20:30;101157.25;;;6.05;100.00
64551;BME280;74341;44.510;-123.270;2024-02-28T03:22:56;101159.22;;;6.03;100.00
64551;BME280;74341;44.510;-123.270;2024-02-28T03:25:22;101167.25;;;6.05;100.00
64551;BME280;74341;44.510;-123.270;2024-02-28T03:27:49;101161.69;;;6.06;100.00
64551;BME280;74341;44.510;-123.270;2024-02-28T03:30:15;101157.97;;;6.07;100.00
64551;BME280;74341;44.510;-123.270;2024-02-28T03:32:41;101163.25;;;6.09;100.00
64551;BME280;74341;44.510;-123.270;2024-02-28T03:35:08;101159.44;;;6.12;100.00
64551;BME280;74341;44.510;-123.270;2024-02-28T03:37:34;101160.28;;;6.12;100.00
64551;BME280;74341;44.510;-123.270;2024-02-28T03:40:00;101149.28;;;6.14;100.00
64551;BME280;74341;44.510;-123.270;2024-02-28T03:42:27;101147.41;;;6.14;100.00
64551;BME280;74341;44.510;-123.270;2024-02-28T03:44:53;101143.84;;;6.14;100.00
64551;BME280;74341;44.510;-123.270;2024-02-28T03:47:20;101145.72;;;6.13;100.00
64551;BME280;74341;44.510;-123.270;2024-02-28T03:49:46;101150.13;;;6.14;100.00
64551;BME280;74341;44.510;-123.270;2024-02-28T03:52:12;101148.31;;;6.15;100.00
64551;BME280;74341;44.510;-123.270;2024-02-28T03:54:42;101138.28;;;6.15;100.00
64551;BME280;74341;44.510;-123.270;2024-02-28T03:57:09;101133.13;;;6.12;100.00
64551;BME280;74341;44.510;-123.270;2024-02-28T03:59:35;101137.56;;;6.13;100.00
64551;BME280;74341;44.510;-123.270;2024-02-28T04:02:02;101136.69;;;6.13;100.00
64551;BME280;74341;44.510;-123.270;2024-02-28T04:04:28;101137.72;;;6.12;100.00
64551;BME280;74341;44.510;-123.270;2024-02-28T04:06:54;101130.69;;;6.09;100.00
64551;BME280;74341;44.510;-123.270;2024-02-28T04:09:21;101126.53;;;6.05;100.00
64551;BME280;74341;44.510;-123.270;2024-02-28T04:11:50;101134.41;;;6.08;100.00
64551;BME280;74341;44.510;-123.270;2024-02-28T04:14:17;101133.41;;;6.09;100.00
64551;BME280;74341;44.510;-123.270;2024-02-28T04:16:46;101128.56;;;6.13;100.00
64551;BME280;74341;44.510;-123.270;2024-02-28T04:19:13;101132.16;;;6.13;100.00
64551;BME280;74341;44.510;-123.270;2024-02-28T04:21:39;101120.28;;;6.14;100.00
64551;BME280;74341;44.510;-123.270;2024-02-28T04:24:08;101126.59;;;6.15;100.00
64551;BME280;74341;44.510;-123.270;2024-02-28T04:26:38;101120.13;;;6.16;100.00
64551;BME280;74341;44.510;-123.270;2024-02-28T04:29:04;101110.13;;;6.16;100.00
64551;BME280;74341;44.510;-123.270;2024-02-28T04:31:33;101101.84;;;6.18;100.00
64551;BME280;74341;44.510;-123.270;2024-02-28T04:33:59;101101.00;;;6.17;100.00
64551;BME280;74341;44.510;-123.270;2024-02-28T04:36:26;101109.88;;;6.19;100.00
64551;BME280;74341;44.510;-123.270;2024-02-28T04:38:52;101105.28;;;6.20;100.00
64551;BME280;74341;44.510;-123.270;2024-02-28T04:41:18;101097.00;;;6.21;100.00
64551;BME280;74341;44.510;-123.270;2024-02-28T04:43:44;101103.31;;;6.22;100.00
64551;BME280;74341;44.510;-123.270;2024-02-28T04:46:11;101111.47;;;6.22;100.00
64551;BME280;74341;44.510;-123.270;2024-02-28T04:48:37;101106.88;;;6.22;100.00
64551;BME280;74341;44.510;-123.270;2024-02-28T04:51:03;101102.31;;;6.23;100.00
64551;BME280;74341;44.510;-123.270;2024-02-28T04:53:30;101095.88;;;6.24;100.00
64551;BME280;74341;44.510;-123.270;2024-02-28T04:55:56;101102.16;;;6.24;100.00
64551;BME280;74341;44.510;-123.270;2024-02-28T04:58:22;101101.00;;;6.27;100.00
64551;BME280;74341;44.510;-123.270;2024-02-28T05:00:49;101095.59;;;6.27;100.00
64551;BME280;74341;44.510;-123.270;2024-02-28T05:03:15;101095.75;;;6.25;100.00
64551;BME280;74341;44.510;-123.270;2024-02-28T05:05:42;101090.31;;;6.25;100.00
64551;BME280;74341;44.510;-123.270;2024-02-28T05:08:08;101088.59;;;6.24;100.00
64551;BME280;74341;44.510;-123.270;2024-02-28T05:10:34;101085.03;;;6.24;100.00
64551;BME280;74341;44.510;-123.270;2024-02-28T05:13:02;101090.31;;;6.25;100.00
64551;BME280;74341;44.510;-123.270;2024-02-28T05:15:29;101089.31;;;6.26;100.00
64551;BME280;74341;44.510;-123.270;2024-02-28T05:17:55;101092.88;;;6.27;100.00
64551;BME280;74341;44.510;-123.270;2024-02-28T05:20:22;101084.72;;;6.27;100.00
64551;BME280;74341;44.510;-123.270;2024-02-28T05:22:48;101098.47;;;6.25;100.00
64551;BME280;74341;44.510;-123.270;2024-02-28T05:25:15;101087.59;;;6.25;100.00
64551;BME280;74341;44.510;-123.270;2024-02-28T05:27:41;101091.16;;;6.26;100.00
64551;BME280;74341;44.510;-123.270;2024-02-28T05:30:08;101084.59;;;6.28;100.00
64551;BME280;74341;44.510;-123.270;2024-02-28T05:32:34;101089.88;;;6.30;100.00
64551;BME280;74341;44.510;-123.270;2024-02-28T05:35:01;101074.44;;;6.31;100.00
64551;BME280;74341;44.510;-123.270;2024-02-28T05:37:27;101078.31;;;6.28;100.00
64551;BME280;74341;44.510;-123.270;2024-02-28T05:39:54;101079.88;;;6.31;100.00
64551;BME280;74341;44.510;-123.270;2024-02-28T05:42:20;101070.03;;;6.30;99.91
64551;BME280;74341;44.510;-123.270;2024-02-28T05:44:50;101055.59;;;6.29;99.87
64551;BME280;74341;44.510;-123.270;2024-02-28T05:47:16;101059.75;;;6.33;99.54
64551;BME280;74341;44.510;-123.270;2024-02-28T05:49:43;101054.31;;;6.33;99.79
64551;BME280;74341;44.510;-123.270;2024-02-28T05:52:09;101055.03;;;6.35;99.25
64551;BME280;74341;44.510;-123.270;2024-02-28T05:54:36;101046.03;;;6.35;98.64
64551;BME280;74341;44.510;-123.270;2024-02-28T05:57:03;101037.75;;;6.36;98.23
64551;BME280;74341;44.510;-123.270;2024-02-28T05:59:32;101040.03;;;6.41;98.82
64551;BME280;74341;44.510;-123.270;2024-02-28T06:01:59;101041.88;;;6.40;98.80
64551;BME280;74341;44.510;-123.270;2024-02-28T06:04:25;101040.91;;;6.41;98.64
64551;BME280;74341;44.510;-123.270;2024-02-28T06:06:51;101050.75;;;6.42;98.33
64551;BME280;74341;44.510;-123.270;2024-02-28T06:09:17;101053.47;;;6.42;98.30
64551;BME280;74341;44.510;-123.270;2024-02-28T06:11:44;101053.59;;;6.41;98.49
64551;BME280;74341;44.510;-123.270;2024-02-28T06:14:10;101041.75;;;6.42;98.53
64551;BME280;74341;44.510;-123.270;2024-02-28T06:16:36;101043.63;;;6.41;98.73
64551;BME280;74341;44.510;-123.270;2024-02-28T06:19:03;101049.06;;;6.41;98.94
64551;BME280;74341;44.510;-123.270;2024-02-28T06:21:29;101049.06;;;6.41;98.69
64551;BME280;74341;44.510;-123.270;2024-02-28T06:23:55;101040.03;;;6.41;98.78
64551;BME280;74341;44.510;-123.270;2024-02-28T06:26:22;101055.34;;;6.42;98.26
64551;BME280;74341;44.510;-123.270;2024-02-28T06:28:57;101048.03;;;6.42;98.47
64551;BME280;74341;44.510;-123.270;2024-02-28T06:31:35;101043.63;;;6.41;98.49
64551;BME280;74341;44.510;-123.270;2024-02-28T06:34:02;101053.47;;;6.42;98.41
64551;BME280;74341;44.510;-123.270;2024-02-28T06:36:29;101051.59;;;6.43;98.00
64551;BME280;74341;44.510;-123.270;2024-02-28T06:38:55;101045.19;;;6.44;98.26
64551;BME280;74341;44.510;-123.270;2024-02-28T06:41:22;101051.31;;;6.46;98.33
64551;BME280;74341;44.510;-123.270;2024-02-28T06:43:48;101049.47;;;6.46;97.98
64551;BME280;74341;44.510;-123.270;2024-02-28T06:46:14;101045.75;;;6.47;98.35
64551;BME280;74341;44.510;-123.270;2024-02-28T06:48:41;101050.34;;;6.47;97.96
64551;BME280;74341;44.510;-123.270;2024-02-28T06:51:07;101051.19;;;6.47;98.17
64551;BME280;74341;44.510;-123.270;2024-02-28T06:53:33;101040.31;;;6.47;98.01
64551;BME280;74341;44.510;-123.270;2024-02-28T06:56:01;101044.78;;;6.49;98.04
64551;BME280;74341;44.510;-123.270;2024-02-28T06:58:28;101043.75;;;6.50;97.78
64551;BME280;74341;44.510;-123.270;2024-02-28T07:00:54;101045.47;;;6.51;97.85
64551;BME280;74341;44.510;-123.270;2024-02-28T07:03:20;101045.47;;;6.51;98.49
64551;BME280;74341;44.510;-123.270;2024-02-28T07:05:47;101041.16;;;6.48;98.59
64551;BME280;74341;44.510;-123.270;2024-02-28T07:08:13;101041.31;;;6.46;98.26
64551;BME280;74341;44.510;-123.270;2024-02-28T07:10:40;101043.88;;;6.48;98.35
64551;BME280;74341;44.510;-123.270;2024-02-28T07:13:09;101049.47;;;6.46;98.49
64551;BME280;74341;44.510;-123.270;2024-02-28T07:15:36;101044.03;;;6.46;98.56
64551;BME280;74341;44.510;-123.270;2024-02-28T07:18:02;101033.16;;;6.46;98.31
64551;BME280;74341;44.510;-123.270;2024-02-28T07:20:29;101038.59;;;6.46;98.47
64551;BME280;74341;44.510;-123.270;2024-02-28T07:22:55;101036.19;;;6.43;98.10
64551;BME280;74341;44.510;-123.270;2024-02-28T07:25:21;101032.31;;;6.46;98.33
64551;BME280;74341;44.510;-123.270;2024-02-28T07:27:47;101039.47;;;6.47;98.38
64551;BME280;74341;44.510;-123.270;2024-02-28T07:30:14;101031.31;;;6.47;98.63
64551;BME280;74341;44.510;-123.270;2024-02-28T07:32:40;101033.34;;;6.45;98.27
64551;BME280;74341;44.510;-123.270;2024-02-28T07:35:07;101036.03;;;6.45;98.37
64551;BME280;74341;44.510;-123.270;2024-02-28T07:37:33;101027.91;;;6.45;98.44
64551;BME280;74341;44.510;-123.270;2024-02-28T07:39:59;101030.75;;;6.43;98.51
64551;BME280;74341;44.510;-123.270;2024-02-28T07:42:26;101017.16;;;6.43;98.27
64551;BME280;74341;44.510;-123.270;2024-02-28T07:44:52;101024.31;;;6.44;98.06
64551;BME280;74341;44.510;-123.270;2024-02-28T07:47:23;101016.28;;;6.43;97.70
64551;BME280;74341;44.510;-123.270;2024-02-28T07:49:50;101019.75;;;6.45;98.37
64551;BME280;74341;44.510;-123.270;2024-02-28T07:52:16;101009.16;;;6.42;98.27
64551;BME280;74341;44.510;-123.270;2024-02-28T07:54:43;101013.56;;;6.43;98.19
64551;BME280;74341;44.510;-123.270;2024-02-28T07:57:09;101010.84;;;6.43;97.11
64551;BME280;74341;44.510;-123.270;2024-02-28T07:59:40;101010.72;;;6.44;97.47
64551;BME280;74341;44.510;-123.270;2024-02-28T08:02:07;101007.88;;;6.46;96.80
64551;BME280;74341;44.510;-123.270;2024-02-28T08:04:33;101011.28;;;6.48;97.63
64551;BME280;74341;44.510;-123.270;2024-02-28T08:07:00;101005.72;;;6.50;96.80
64551;BME280;74341;44.510;-123.270;2024-02-28T08:09:26;101007.44;;;6.51;97.25
64551;BME280;74341;44.510;-123.270;2024-02-28T08:11:53;101004.59;;;6.52;97.50
64551;BME280;74341;44.510;-123.270;2024-02-28T08:14:19;101012.00;;;6.50;97.09
64551;BME280;74341;44.510;-123.270;2024-02-28T08:16:45;101005.44;;;6.53;96.72
64551;BME280;74341;44.510;-123.270;2024-02-28T08:19:11;100999.00;;;6.54;96.78
64551;BME280;74341;44.510;-123.270;2024-02-28T08:21:38;100983.56;;;6.54;96.01
64551;BME280;74341;44.510;-123.270;2024-02-28T08:24:04;100985.13;;;6.57;96.42
64551;BME280;74341;44.510;-123.270;2024-02-28T08:26:31;100976.28;;;6.55;96.61
64551;BME280;74341;44.510;-123.270;2024-02-28T08:28:57;100970.84;;;6.55;96.69
64551;BME280;74341;44.510;-123.270;2024-02-28T08:31:23;100980.84;;;6.54;96.24
64551;BME280;74341;44.510;-123.270;2024-02-28T08:33:50;100985.41;;;6.54;94.85
64551;BME280;74341;44.510;-123.270;2024-02-28T08:36:16;100981.72;;;6.55;96.33
64551;BME280;74341;44.510;-123.270;2024-02-28T08:38:42;100978.16;;;6.54;95.46
64551;BME280;74341;44.510;-123.270;2024-02-28T08:41:08;100978.16;;;6.54;92.79
64551;BME280;74341;44.510;-123.270;2024-02-28T08:43:40;100977.13;;;6.55;94.60
64551;BME280;74341;44.510;-123.270;2024-02-28T08:46:06;100970.69;;;6.56;94.51
64551;BME280;74341;44.510;-123.270;2024-02-28T08:48:33;100969.72;;;6.57;94.76
64551;BME280;74341;44.510;-123.270;2024-02-28T08:50:59;100973.56;;;6.55;93.67
64551;BME280;74341;44.510;-123.270;2024-02-28T08:53:26;100965.28;;;6.56;92.98
64551;BME280;74341;44.510;-123.270;2024-02-28T08:55:52;100960.69;;;6.57;93.01
64551;BME280;74341;44.510;-123.270;2024-02-28T08:58:19;100965.97;;;6.58;94.31
64551;BME280;74341;44.510;-123.270;2024-02-28T09:00:45;100960.53;;;6.58;93.68
64551;BME280;74341;44.510;-123.270;2024-02-28T09:03:11;100966.81;;;6.59;92.37
64551;BME280;74341;44.510;-123.270;2024-02-28T09:05:37;100957.56;;;6.61;94.16
64551;BME280;74341;44.510;-123.270;2024-02-28T09:08:04;100951.28;;;6.61;93.00
64551;BME280;74341;44.510;-123.270;2024-02-28T09:10:30;100950.25;;;6.62;92.95
64551;BME280;74341;44.510;-123.270;2024-02-28T09:13:00;100944.81;;;6.62;91.91
64551;BME280;74341;44.510;-123.270;2024-02-28T09:15:26;100944.81;;;6.62;92.21
64551;BME280;74341;44.510;-123.270;2024-02-28T09:17:52;100942.81;;;6.64;93.03
64551;BME280;74341;44.510;-123.270;2024-02-28T09:20:18;100935.53;;;6.64;93.14
64551;BME280;74341;44.510;-123.270;2024-02-28T09:22:45;100936.38;;;6.65;93.14
64551;BME280;74341;44.510;-123.270;2024-02-28T09:25:11;100924.50;;;6.66;92.16
64551;BME280;74341;44.510;-123.270;2024-02-28T09:27:37;100925.66;;;6.63;93.12
64551;BME280;74341;44.510;-123.270;2024-02-28T09:30:04;100926.50;;;6.64;92.59
64551;BME280;74341;44.510;-123.270;2024-02-28T09:32:31;100917.50;;;6.63;93.75
64551;BME280;74341;44.510;-123.270;2024-02-28T09:34:57;100924.66;;;6.64;93.66
64551;BME280;74341;44.510;-123.270;2024-02-28T09:37:24;100923.09;;;6.62;92.98
64551;BME280;74341;44.510;-123.270;2024-02-28T09:39:51;100911.22;;;6.63;92.74
64551;BME280;74341;44.510;-123.270;2024-02-28T09:42:18;100914.78;;;6.63;93.17
64551;BME280;74341;44.510;-123.270;2024-02-28T09:44:45;100909.22;;;6.65;93.36
64551;BME280;74341;44.510;-123.270;2024-02-28T09:47:11;100902.94;;;6.64;92.61
64551;BME280;74341;44.510;-123.270;2024-02-28T09:49:39;100897.50;;;6.64;92.52
64551;BME280;74341;44.510;-123.270;2024-02-28T09:52:07;100907.34;;;6.65;93.15
64551;BME280;74341;44.510;-123.270;2024-02-28T09:54:35;100910.91;;;6.66;93.11
64551;BME280;74341;44.510;-123.270;2024-02-28T09:57:01;100905.66;;;6.64;92.94
64551;BME280;74341;44.510;-123.270;2024-02-28T09:59:30;100909.22;;;6.65;93.77
64551;BME280;74341;44.510;-123.270;2024-02-28T10:01:57;100911.22;;;6.63;94.45
64551;BME280;74341;44.510;-123.270;2024-02-28T10:04:28;100906.91;;;6.60;94.10
64551;BME280;74341;44.510;-123.270;2024-02-28T10:06:56;100896.50;;;6.56;94.57
64551;BME280;74341;44.510;-123.270;2024-02-28T10:09:22;100892.06;;;6.55;95.08
64551;BME280;74341;44.510;-123.270;2024-02-28T10:11:48;100901.22;;;6.54;95.43
64551;BME280;74341;44.510;-123.270;2024-02-28T10:14:18;100891.22;;;6.54;95.00
64551;BME280;74341;44.510;-123.270;2024-02-28T10:16:45;100885.06;;;6.52;94.92
64551;BME280;74341;44.510;-123.270;2024-02-28T10:19:11;100889.34;;;6.55;94.77
64551;BME280;74341;44.510;-123.270;2024-02-28T10:21:38;100877.50;;;6.56;93.85
64551;BME280;74341;44.510;-123.270;2024-02-28T10:24:05;100878.19;;;6.58;94.42
64551;BME280;74341;44.510;-123.270;2024-02-28T10:26:31;100873.75;;;6.57;94.18
64551;BME280;74341;44.510;-123.270;2024-02-28T10:29:03;100881.75;;;6.58;94.02
64551;BME280;74341;44.510;-123.270;2024-02-28T10:31:32;100865.47;;;6.58;93.73
64551;BME280;74341;44.510;-123.270;2024-02-28T10:34:01;100858.47;;;6.56;93.50
64551;BME280;74341;44.510;-123.270;2024-02-28T10:36:31;100855.63;;;6.57;94.17
64551;BME280;74341;44.510;-123.270;2024-02-28T10:38:58;100848.31;;;6.58;93.50
64551;BME280;74341;44.510;-123.270;2024-02-28T10:41:26;100845.47;;;6.59;94.10
64551;BME280;74341;44.510;-123.270;2024-02-28T10:43:54;100838.16;;;6.60;93.99
64551;BME280;74341;44.510;-123.270;2024-02-28T10:46:20;100839.16;;;6.59;94.42
64551;BME280;74341;44.510;-123.270;2024-02-28T10:48:49;100840.16;;;6.58;93.98
64551;BME280;74341;44.510;-123.270;2024-02-28T10:51:22;100846.59;;;6.57;93.98
64551;BME280;74341;44.510;-123.270;2024-02-28T10:56:51;100844.44;;;6.60;94.06
64551;BME280;74341;44.510;-123.270;2024-02-28T10:59:21;100835.44;;;6.60;93.39
64551;BME280;74341;44.510;-123.270;2024-02-28T11:01:49;100837.16;;;6.61;93.26
64551;BME280;74341;44.510;-123.270;2024-02-28T11:04:17;100818.28;;;6.59;93.02
64551;BME280;74341;44.510;-123.270;2024-02-28T11:06:51;100816.28;;;6.61;92.95
64551;BME280;74341;44.510;-123.270;2024-02-28T11:09:22;100806.56;;;6.59;92.62
64551;BME280;74341;44.510;-123.270;2024-02-28T11:11:49;100807.72;;;6.56;91.90
64551;BME280;74341;44.510;-123.270;2024-02-28T11:14:19;100799.72;;;6.55;91.98
64551;BME280;74341;44.510;-123.270;2024-02-28T11:17:03;100800.00;;;6.52;90.02
64551;BME280;74341;44.510;-123.270;2024-02-28T11:19:31;100811.75;;;6.52;91.92
64551;BME280;74341;44.510;-123.270;2024-02-28T11:22:01;100798.31;;;6.51;90.12
64551;BME280;74341;44.510;-123.270;2024-02-28T11:24:30;100797.59;;;6.49;89.37
64551;BME280;74341;44.510;-123.270;2024-02-28T11:26:57;100787.59;;;6.49;90.11
64551;BME280;74341;44.510;-123.270;2024-02-28T11:29:25;100778.28;;;6.52;88.92
64551;BME280;74341;44.510;-123.270;2024-02-28T11:31:52;100790.00;;;6.52;89.76
64551;BME280;74341;44.510;-123.270;2024-02-28T11:34:19;100785.44;;;6.53;88.75
64551;BME280;74341;44.510;-123.270;2024-02-28T11:36:49;100787.72;;;6.57;88.45
64551;BME280;74341;44.510;-123.270;2024-02-28T11:39:17;100790.44;;;6.57;86.60
64551;BME280;74341;44.510;-123.270;2024-02-28T11:41:44;100792.69;;;6.62;88.16
64551;BME280;74341;44.510;-123.270;2024-02-28T11:44:15;100792.69;;;6.62;87.09
64551;BME280;74341;44.510;-123.270;2024-02-28T11:46:46;100775.53;;;6.61;86.43
64551;BME280;74341;44.510;-123.270;2024-02-28T11:49:13;100768.94;;;6.64;86.95
64551;BME280;74341;44.510;-123.270;2024-02-28T11:51:43;100771.66;;;6.64;87.13
64551;BME280;74341;44.510;-123.270;2024-02-28T11:54:11;100761.81;;;6.63;86.11
64551;BME280;74341;44.510;-123.270;2024-02-28T11:56:40;100772.66;;;6.63;86.36
64551;BME280;74341;44.510;-123.270;2024-02-28T11:59:07;100763.50;;;6.64;85.09
64551;BME280;74341;44.510;-123.270;2024-02-28T12:01:39;100767.38;;;6.61;85.20
64551;BME280;74341;44.510;-123.270;2024-02-28T12:04:06;100759.09;;;6.63;85.37
64551;BME280;74341;44.510;-123.270;2024-02-28T12:06:34;100762.50;;;6.65;85.21
64551;BME280;74341;44.510;-123.270;2024-02-28T12:09:08;100753.50;;;6.64;84.60
64551;BME280;74341;44.510;-123.270;2024-02-28T12:11:35;100745.19;;;6.66;84.90
64551;BME280;74341;44.510;-123.270;2024-02-28T12:14:07;100749.91;;;6.64;85.00
64551;BME280;74341;44.510;-123.270;2024-02-28T12:16:36;100752.34;;;6.67;85.35
64551;BME280;74341;44.510;-123.270;2024-02-28T12:19:11;100736.19;;;6.65;83.39
64551;BME280;74341;44.510;-123.270;2024-02-28T12:21:40;100755.91;;;6.68;84.60
64551;BME280;74341;44.510;-123.270;2024-02-28T12:24:11;100740.47;;;6.68;85.37
64551;BME280;74341;44.510;-123.270;2024-02-28T12:26:38;100743.91;;;6.70;84.68
64551;BME280;74341;44.510;-123.270;2024-02-28T12:29:05;100740.16;;;6.71;85.71
64551;BME280;74341;44.510;-123.270;2024-02-28T12:31:31;100736.59;;;6.71;83.18